createdAt,value
2018-11-25T00:00:24.217Z,3.34
2018-11-25T00:02:53.107Z,3.43
2018-11-25T00:05:21.964Z,3.47
2018-11-25T00:07:50.903Z,3.30
2018-11-25T00:10:19.793Z,3.02
2018-11-25T00:12:48.636Z,2.93
2018-11-25T00:15:17.575Z,2.90
2018-11-25T00:17:46.566Z,2.95
2018-11-25T00:20:15.549Z,2.78
2018-11-25T00:22:44.700Z,2.69
2018-11-25T00:25:15.308Z,2.70
2018-11-25T00:27:44.211Z,2.57
2018-11-25T00:30:16.851Z,2.66
2018-11-25T00:32:45.895Z,2.70
2018-11-25T00:35:15.785Z,2.75
2018-11-25T00:37:48.580Z,2.81
2018-11-25T00:40:15.873Z,2.85
2018-11-25T00:42:45.394Z,2.86
2018-11-25T00:45:15.767Z,2.79
2018-11-25T00:47:44.636Z,2.70
2018-11-25T00:50:14.454Z,2.67
2018-11-25T00:52:43.372Z,2.71
2018-11-25T00:55:19.348Z,2.70
2018-11-25T00:57:48.274Z,2.75
2018-11-25T01:00:20.186Z,2.78
2018-11-25T01:02:50.047Z,2.94
2018-11-25T01:05:19.125Z,2.92
2018-11-25T01:07:48.072Z,2.90
2018-11-25T01:10:17.844Z,3.01
2018-11-25T01:12:46.840Z,3.02
2018-11-25T01:15:17.521Z,3.07
2018-11-25T01:17:46.540Z,3.02
2018-11-25T01:20:17.677Z,2.99
2018-11-25T01:22:47.829Z,2.91
2018-11-25T01:25:16.810Z,2.90
2018-11-25T01:27:45.812Z,2.78
2018-11-25T01:30:16.501Z,2.65
2018-11-25T01:32:45.423Z,2.73
2018-11-25T01:35:14.545Z,2.83
2018-11-25T01:37:43.689Z,2.97
2018-11-25T01:40:13.602Z,3.02
2018-11-25T01:42:42.697Z,3.05
2018-11-25T01:45:12.720Z,3.00
2018-11-25T01:47:41.696Z,3.05
2018-11-25T01:50:15.553Z,3.17
2018-11-25T01:52:44.534Z,3.20
2018-11-25T01:55:14.556Z,3.19
2018-11-25T01:57:43.545Z,3.24
2018-11-25T02:00:13.700Z,3.31
2018-11-25T02:02:42.716Z,3.28
2018-11-25T02:05:11.696Z,3.34
2018-11-25T02:07:40.615Z,3.37
2018-11-25T02:10:13.951Z,3.39
2018-11-25T02:12:42.956Z,3.40
2018-11-25T02:15:13.042Z,3.30
2018-11-25T02:17:42.105Z,3.31
2018-11-25T02:20:19.203Z,3.16
2018-11-25T02:22:48.140Z,3.20
2018-11-25T02:25:17.102Z,3.17
2018-11-25T02:27:46.031Z,3.15
2018-11-25T02:30:17.001Z,3.09
2018-11-25T02:32:46.545Z,3.01
2018-11-25T02:35:16.279Z,3.00
2018-11-25T02:37:45.707Z,3.04
2018-11-25T02:40:15.416Z,3.05
2018-11-25T02:42:44.279Z,3.00
2018-11-25T02:45:15.119Z,2.91
2018-11-25T02:47:44.034Z,2.86
2018-11-25T02:50:31.772Z,3.04
2018-11-25T02:53:05.748Z,3.05
2018-11-25T02:55:34.776Z,3.13
2018-11-25T02:58:03.680Z,2.89
2018-11-25T03:00:32.622Z,2.75
2018-11-25T03:03:01.612Z,2.80
2018-11-25T03:05:30.482Z,2.82
2018-11-25T03:07:59.384Z,2.71
2018-11-25T03:10:28.521Z,2.72
2018-11-25T03:12:57.428Z,2.69
2018-11-25T03:15:26.347Z,2.75
2018-11-25T03:17:55.351Z,2.72
2018-11-25T03:20:24.255Z,2.74
2018-11-25T03:22:53.176Z,2.76
2018-11-25T03:25:22.540Z,2.83
2018-11-25T03:27:51.776Z,2.90
2018-11-25T03:30:21.580Z,3.01
2018-11-25T03:32:51.626Z,3.15
2018-11-25T03:35:20.608Z,3.21
2018-11-25T03:37:49.637Z,3.24
2018-11-25T03:40:19.168Z,3.27
2018-11-25T03:42:48.169Z,3.30
2018-11-25T03:45:18.036Z,3.27
2018-11-25T03:47:47.005Z,3.28
2018-11-25T03:50:16.335Z,3.07
2018-11-25T03:52:45.327Z,2.98
2018-11-25T03:55:15.452Z,2.96
2018-11-25T03:57:44.450Z,3.10
2018-11-25T04:00:14.421Z,3.30
2018-11-25T04:02:43.436Z,3.37
2018-11-25T04:05:13.574Z,3.39
2018-11-25T04:07:42.809Z,3.45
2018-11-25T04:10:14.382Z,3.43
2018-11-25T04:12:43.303Z,3.51
2018-11-25T04:15:13.358Z,3.50
2018-11-25T04:17:42.613Z,3.51
2018-11-25T04:20:15.719Z,3.53
2018-11-25T04:22:44.816Z,3.56
2018-11-25T04:25:14.254Z,3.55
2018-11-25T04:27:43.189Z,3.61
2018-11-25T04:30:13.299Z,3.62
2018-11-25T04:32:42.336Z,3.57
2018-11-25T04:35:12.241Z,3.28
2018-11-25T04:37:41.313Z,3.22
2018-11-25T04:40:12.168Z,3.47
2018-11-25T04:42:41.021Z,3.47
2018-11-25T04:45:13.113Z,3.46
2018-11-25T04:47:42.081Z,3.54
2018-11-25T04:50:16.864Z,3.57
2018-11-25T04:52:45.930Z,3.51
2018-11-25T04:55:14.960Z,3.37
2018-11-25T04:57:49.992Z,3.26
2018-11-25T05:00:19.481Z,3.12
2018-11-25T05:02:48.842Z,3.20
2018-11-25T05:05:17.946Z,3.29
2018-11-25T05:07:46.960Z,3.32
2018-11-25T05:10:16.795Z,3.23
2018-11-25T05:12:45.724Z,3.20
2018-11-25T05:15:19.311Z,3.20
2018-11-25T05:17:48.221Z,3.17
2018-11-25T05:20:17.963Z,3.11
2018-11-25T05:22:46.944Z,3.15
2018-11-25T05:25:16.820Z,3.15
2018-11-25T05:27:45.763Z,3.18
2018-11-25T05:30:19.090Z,3.22
2018-11-25T05:32:48.012Z,3.35
2018-11-25T05:35:18.093Z,3.43
2018-11-25T05:37:47.018Z,3.42
2018-11-25T05:40:16.620Z,3.39
2018-11-25T05:42:45.644Z,3.42
2018-11-25T05:45:18.571Z,3.50
2018-11-25T05:47:47.608Z,3.66
2018-11-25T05:50:17.590Z,3.74
2018-11-25T05:52:46.535Z,3.72
2018-11-25T05:55:15.550Z,3.86
2018-11-25T05:57:44.539Z,3.83
2018-11-25T06:00:22.363Z,3.86
2018-11-25T06:02:51.253Z,3.93
2018-11-25T06:05:20.219Z,3.91
2018-11-25T06:07:49.199Z,4.06
2018-11-25T06:10:18.181Z,3.87
2018-11-25T06:12:47.143Z,4.17
2018-11-25T06:15:16.080Z,4.36
2018-11-25T06:17:45.028Z,4.47
2018-11-25T06:20:15.822Z,4.44
2018-11-25T06:22:44.920Z,4.58
2018-11-25T06:25:15.889Z,4.58
2018-11-25T06:27:44.817Z,4.77
2018-11-25T06:30:18.594Z,4.76
2018-11-25T06:32:47.501Z,4.87
2018-11-25T06:35:17.361Z,4.92
2018-11-25T06:37:46.360Z,4.86
2018-11-25T06:40:17.108Z,4.86
2018-11-25T06:42:46.162Z,4.97
2018-11-25T06:45:21.325Z,4.88
2018-11-25T06:47:50.238Z,4.96
2018-11-25T06:50:20.549Z,5.05
2018-11-25T06:52:49.449Z,4.93
2018-11-25T06:55:18.375Z,4.70
2018-11-25T06:57:48.532Z,4.66
2018-11-25T07:00:22.470Z,4.54
2018-11-25T07:02:51.412Z,4.45
2018-11-25T07:05:20.328Z,4.70
2018-11-25T07:07:49.306Z,4.85
2018-11-25T07:10:20.194Z,4.83
2018-11-25T07:12:50.209Z,4.75
2018-11-25T07:15:19.619Z,4.79
2018-11-25T07:17:48.712Z,4.81
2018-11-25T07:20:21.370Z,4.63
2018-11-25T07:22:51.601Z,4.54
2018-11-25T07:25:22.469Z,4.59
2018-11-25T07:27:51.525Z,4.64
2018-11-25T07:30:23.407Z,4.70
2018-11-25T07:32:52.367Z,4.75
2018-11-25T07:35:21.394Z,4.67
2018-11-25T07:37:50.304Z,4.91
2018-11-25T07:40:20.177Z,4.87
2018-11-25T07:42:49.473Z,5.01
2018-11-25T07:45:19.476Z,5.28
2018-11-25T07:47:48.438Z,5.36
2018-11-25T07:50:17.424Z,5.16
2018-11-25T07:52:47.223Z,5.36
2018-11-25T07:55:20.166Z,5.61
2018-11-25T07:57:49.672Z,5.53
2018-11-25T08:00:20.524Z,5.65
2018-11-25T08:02:49.396Z,5.78
2018-11-25T08:05:19.526Z,5.48
2018-11-25T08:07:48.415Z,5.54
2018-11-25T08:10:17.439Z,5.52
2018-11-25T08:12:46.880Z,5.65
2018-11-25T08:15:17.595Z,5.94
2018-11-25T08:17:46.584Z,6.02
2018-11-25T08:20:16.617Z,6.03
2018-11-25T08:22:45.555Z,5.85
2018-11-25T08:25:17.281Z,5.99
2018-11-25T08:27:52.761Z,6.17
2018-11-25T08:30:23.566Z,6.04
2018-11-25T08:32:52.934Z,6.25
2018-11-25T08:35:22.100Z,6.15
2018-11-25T08:37:51.057Z,6.20
2018-11-25T08:40:21.950Z,6.31
2018-11-25T08:42:50.897Z,6.28
2018-11-25T08:45:19.909Z,6.29
2018-11-25T08:47:48.756Z,6.50
2018-11-25T08:50:18.715Z,6.39
2018-11-25T08:52:49.532Z,6.36
2018-11-25T08:55:22.626Z,6.57
2018-11-25T08:57:51.560Z,6.54
2018-11-25T09:00:21.560Z,6.52
2018-11-25T09:02:51.331Z,6.85
2018-11-25T09:05:20.223Z,7.08
2018-11-25T09:07:50.402Z,7.16
2018-11-25T09:10:21.320Z,7.03
2018-11-25T09:12:55.709Z,7.11
2018-11-25T09:15:24.518Z,7.11
2018-11-25T09:17:53.472Z,7.37
2018-11-25T09:20:22.910Z,7.38
2018-11-25T09:22:52.433Z,7.48
2018-11-25T09:25:28.485Z,7.39
2018-11-25T09:27:58.154Z,7.75
2018-11-25T09:30:27.953Z,7.51
2018-11-25T09:32:56.987Z,7.69
2018-11-25T09:35:26.164Z,7.74
2018-11-25T09:37:55.117Z,7.80
2018-11-25T09:40:26.444Z,7.72
2018-11-25T09:42:55.505Z,7.96
2018-11-25T09:45:24.545Z,7.79
2018-11-25T09:47:53.500Z,8.00
2018-11-25T09:50:23.431Z,7.91
2018-11-25T09:52:52.484Z,8.03
2018-11-25T09:55:25.198Z,8.27
2018-11-25T09:58:00.044Z,8.32
2018-11-25T10:00:31.020Z,8.39
2018-11-25T10:02:59.969Z,8.54
2018-11-25T10:05:28.928Z,8.54
2018-11-25T10:07:57.873Z,8.66
2018-11-25T10:10:26.906Z,8.54
2018-11-25T10:12:55.878Z,8.79
2018-11-25T10:15:25.954Z,8.87
2018-11-25T10:17:59.742Z,8.85
2018-11-25T10:20:25.195Z,8.87
2018-11-25T10:22:54.179Z,9.00
2018-11-25T10:25:23.203Z,8.81
2018-11-25T10:27:52.198Z,8.59
2018-11-25T10:30:22.005Z,8.97
2018-11-25T10:32:54.076Z,9.18
2018-11-25T10:35:22.952Z,9.24
2018-11-25T10:37:51.896Z,9.36
2018-11-25T10:40:21.948Z,9.55
2018-11-25T10:42:50.938Z,9.66
2018-11-25T10:45:25.670Z,9.42
2018-11-25T10:47:54.713Z,9.61
2018-11-25T10:50:23.695Z,9.69
2018-11-25T10:52:54.105Z,9.81
2018-11-25T10:55:23.481Z,9.88
2018-11-25T10:57:53.836Z,10.23
2018-11-25T11:00:42.336Z,10.44
2018-11-25T11:03:16.766Z,10.54
2018-11-25T11:05:50.915Z,10.66
2018-11-25T11:08:19.807Z,10.68
2018-11-25T11:10:48.852Z,10.79
2018-11-25T11:13:19.065Z,10.75
2018-11-25T11:15:47.982Z,10.95
2018-11-25T11:18:16.908Z,11.00
2018-11-25T11:20:45.869Z,10.46
2018-11-25T11:23:14.842Z,10.86
2018-11-25T11:25:49.164Z,11.04
2018-11-25T11:28:18.047Z,11.09
2018-11-25T11:30:46.908Z,10.96
2018-11-25T11:33:15.906Z,11.03
2018-11-25T11:35:44.788Z,11.07
2018-11-25T11:38:14.967Z,10.79
2018-11-25T11:40:44.226Z,10.90
2018-11-25T11:43:13.267Z,11.17
2018-11-25T11:45:42.201Z,11.18
2018-11-25T11:48:11.172Z,10.93
2018-11-25T11:50:40.304Z,10.92
2018-11-25T11:53:09.449Z,11.25
2018-11-25T11:55:39.786Z,11.44
2018-11-25T11:58:08.748Z,11.54
2018-11-25T12:00:37.736Z,11.54
2018-11-25T12:03:08.340Z,11.59
2018-11-25T12:05:37.249Z,11.31
2018-11-25T12:08:06.715Z,11.40
2018-11-25T12:10:37.089Z,11.26
2018-11-25T12:13:06.901Z,11.63
2018-11-25T12:15:35.871Z,11.67
2018-11-25T12:18:04.995Z,11.81
2018-11-25T12:20:34.017Z,11.81
2018-11-25T12:23:03.026Z,11.85
2018-11-25T12:25:32.172Z,11.79
2018-11-25T12:28:02.352Z,11.88
2018-11-25T12:30:31.216Z,11.59
2018-11-25T12:33:00.177Z,11.67
2018-11-25T12:35:29.186Z,11.71
2018-11-25T12:37:58.111Z,11.56
2018-11-25T12:40:27.160Z,11.34
2018-11-25T12:42:57.601Z,11.41
2018-11-25T12:45:26.701Z,11.52
2018-11-25T12:47:55.644Z,11.70
2018-11-25T12:50:25.733Z,11.92
2018-11-25T12:52:54.880Z,12.05
2018-11-25T12:55:25.144Z,12.26
2018-11-25T12:57:54.373Z,12.39
2018-11-25T13:00:30.756Z,12.53
2018-11-25T13:02:59.949Z,12.70
2018-11-25T13:05:28.875Z,12.75
2018-11-25T13:07:57.833Z,12.89
2018-11-25T13:10:28.102Z,12.61
2018-11-25T13:12:57.050Z,12.28
2018-11-25T13:15:26.089Z,12.39
2018-11-25T13:17:56.319Z,12.23
2018-11-25T13:20:25.276Z,12.44
2018-11-25T13:22:54.255Z,12.49
2018-11-25T13:25:23.383Z,12.59
2018-11-25T13:27:52.433Z,12.60
2018-11-25T13:30:28.776Z,12.54
2018-11-25T13:32:58.937Z,12.37
2018-11-25T13:35:29.253Z,12.24
2018-11-25T13:37:58.221Z,12.13
2018-11-25T13:40:27.202Z,12.00
2018-11-25T13:42:56.248Z,11.88
2018-11-25T13:45:25.215Z,11.76
2018-11-25T13:47:54.125Z,11.69
2018-11-25T13:50:23.091Z,11.53
2018-11-25T13:52:52.026Z,11.41
2018-11-25T13:55:23.275Z,11.37
2018-11-25T13:57:52.219Z,11.26
2018-11-25T14:00:27.942Z,11.15
2018-11-25T14:02:58.408Z,11.08
2018-11-25T14:05:27.307Z,10.98
2018-11-25T14:07:56.303Z,10.89
2018-11-25T14:10:27.102Z,10.75
2018-11-25T14:12:56.091Z,10.67
2018-11-25T14:15:25.212Z,10.58
2018-11-25T14:17:54.171Z,10.52
2018-11-25T14:20:23.092Z,10.43
2018-11-25T14:22:52.018Z,10.29
2018-11-25T14:25:21.888Z,10.18
2018-11-25T14:27:52.993Z,10.11
2018-11-25T14:30:23.473Z,10.08
2018-11-25T14:32:52.413Z,9.99
2018-11-25T14:35:21.411Z,9.90
2018-11-25T14:37:50.316Z,9.94
2018-11-25T14:40:20.191Z,9.78
2018-11-25T14:42:49.489Z,9.75
2018-11-25T14:45:18.941Z,9.67
2018-11-25T14:47:47.916Z,9.63
2018-11-25T14:50:18.382Z,9.60
2018-11-25T14:52:48.577Z,9.50
2018-11-25T14:55:17.845Z,9.43
2018-11-25T14:57:46.826Z,9.35
2018-11-25T15:00:19.851Z,9.26
2018-11-25T15:02:52.344Z,9.26
2018-11-25T15:05:24.024Z,9.22
2018-11-25T15:07:52.976Z,9.16
2018-11-25T15:10:23.317Z,9.09
2018-11-25T15:12:52.334Z,9.07
2018-11-25T15:15:21.179Z,9.08
2018-11-25T15:17:51.433Z,9.02
2018-11-25T15:20:20.458Z,8.98
2018-11-25T15:22:53.553Z,8.95
2018-11-25T15:25:24.319Z,8.92
2018-11-25T15:27:53.316Z,8.92
2018-11-25T15:30:22.350Z,8.96
2018-11-25T15:32:51.362Z,8.91
2018-11-25T15:35:20.365Z,8.92
2018-11-25T15:37:51.544Z,8.92
2018-11-25T15:40:35.982Z,8.91
2018-11-25T15:43:06.628Z,8.91
2018-11-25T15:45:35.561Z,8.93
2018-11-25T15:48:09.228Z,8.98
2018-11-25T15:50:38.331Z,8.93
2018-11-25T15:53:08.464Z,8.92
2018-11-25T15:55:37.449Z,8.89
2018-11-25T15:58:07.328Z,8.96
2018-11-25T16:00:36.415Z,8.97
2018-11-25T16:03:06.960Z,8.93
2018-11-25T16:05:35.988Z,8.88
2018-11-25T16:08:05.135Z,8.82
2018-11-25T16:10:34.149Z,8.78
2018-11-25T16:13:03.136Z,8.76
2018-11-25T16:15:32.145Z,8.82
2018-11-25T16:18:02.495Z,8.70
2018-11-25T16:20:31.405Z,8.62
2018-11-25T16:23:03.771Z,8.62
2018-11-25T16:25:51.108Z,8.57
2018-11-25T16:28:23.609Z,8.51
2018-11-25T16:30:54.226Z,8.50
2018-11-25T16:33:23.106Z,8.54
2018-11-25T16:35:52.005Z,8.49
2018-11-25T16:38:21.001Z,8.37
2018-11-25T16:40:49.925Z,8.02
2018-11-25T16:43:18.951Z,7.82
2018-11-25T16:45:48.091Z,7.62
2018-11-25T16:48:17.069Z,7.60
2018-11-25T16:50:47.421Z,7.66
2018-11-25T16:53:16.390Z,7.79
2018-11-25T16:55:45.314Z,7.93
2018-11-25T16:58:14.377Z,8.10
2018-11-25T17:00:43.396Z,8.13
2018-11-25T17:03:12.351Z,8.06
2018-11-25T17:05:43.249Z,8.06
2018-11-25T17:08:22.360Z,8.10
2018-11-25T17:10:51.604Z,8.17
2018-11-25T17:13:20.640Z,8.29
2018-11-25T17:15:49.607Z,8.27
2018-11-25T17:18:18.680Z,8.29
2018-11-25T17:20:47.649Z,8.25
2018-11-25T17:23:17.995Z,8.26
2018-11-25T17:25:47.136Z,8.29
2018-11-25T17:28:16.230Z,8.31
2018-11-25T17:30:45.185Z,8.34
2018-11-25T17:33:14.340Z,8.29
2018-11-25T17:35:43.348Z,8.19
2018-11-25T17:38:13.730Z,8.05
2018-11-25T17:40:42.713Z,7.97
2018-11-25T17:43:13.481Z,7.89
2018-11-25T17:45:42.442Z,7.83
2018-11-25T17:48:11.360Z,7.81
2018-11-25T17:50:40.285Z,7.81
2018-11-25T17:53:09.555Z,7.84
2018-11-25T17:55:38.478Z,7.85
2018-11-25T17:58:07.645Z,7.78
2018-11-25T18:00:43.401Z,7.64
2018-11-25T18:03:25.282Z,7.61
2018-11-25T18:05:54.461Z,7.46
2018-11-25T18:08:23.423Z,7.38
2018-11-25T18:10:53.021Z,7.38
2018-11-25T18:13:26.112Z,7.19
2018-11-25T18:15:56.389Z,7.20
2018-11-25T18:18:32.108Z,7.26
2018-11-25T18:21:02.986Z,7.23
2018-11-25T18:23:31.994Z,7.26
2018-11-25T18:26:01.094Z,7.22
2018-11-25T18:28:30.099Z,7.23
2018-11-25T18:30:59.149Z,7.23
2018-11-25T18:33:28.126Z,7.32
2018-11-25T18:35:57.189Z,7.40
2018-11-25T18:38:26.199Z,7.44
2018-11-25T18:40:55.202Z,7.47
2018-11-25T18:43:24.217Z,7.50
2018-11-25T18:45:59.437Z,7.44
2018-11-25T18:48:23.939Z,7.47
2018-11-25T18:50:52.915Z,7.61
2018-11-25T18:53:21.776Z,7.66
2018-11-25T18:55:49.292Z,7.77
2018-11-25T18:58:18.250Z,7.79
2018-11-25T19:00:56.877Z,7.67
2018-11-25T19:03:25.820Z,7.45
2018-11-25T19:05:54.799Z,7.20
2018-11-25T19:08:23.736Z,6.88
2018-11-25T19:10:52.660Z,6.74
2018-11-25T19:13:21.571Z,6.68
2018-11-25T19:15:50.538Z,6.68
2018-11-25T19:18:19.498Z,6.67
2018-11-25T19:20:48.384Z,6.77
2018-11-25T19:23:18.871Z,6.93
2018-11-25T19:25:47.847Z,7.05
2018-11-25T19:28:16.798Z,7.26
2018-11-25T19:30:46.001Z,7.44
2018-11-25T19:33:14.904Z,7.54
2018-11-25T19:35:43.815Z,7.56
2018-11-25T19:38:13.969Z,7.53
2018-11-25T19:40:43.016Z,7.54
2018-11-25T19:43:12.293Z,7.54
2018-11-25T19:45:41.207Z,7.50
2018-11-25T19:48:11.449Z,7.48
2018-11-25T19:50:40.422Z,7.54
2018-11-25T19:53:10.557Z,7.56
2018-11-25T19:55:41.461Z,7.49
2018-11-25T19:58:10.444Z,7.49
2018-11-25T20:00:39.488Z,7.48
2018-11-25T20:03:08.708Z,7.40
2018-11-25T20:05:39.961Z,7.33
2018-11-25T20:08:09.338Z,7.38
2018-11-25T20:10:38.416Z,7.29
2018-11-25T20:13:09.088Z,7.30
2018-11-25T20:15:38.328Z,7.15
2018-11-25T20:18:08.681Z,7.10
2018-11-25T20:20:39.031Z,7.03
2018-11-25T20:23:08.029Z,7.06
2018-11-25T20:25:36.986Z,7.06
2018-11-25T20:28:06.065Z,6.94
2018-11-25T20:30:35.349Z,6.89
2018-11-25T20:33:09.417Z,6.84
2018-11-25T20:35:38.365Z,6.75
2018-11-25T20:38:12.393Z,6.81
2018-11-25T20:40:41.329Z,6.78
2018-11-25T20:43:10.406Z,6.70
2018-11-25T20:45:44.562Z,6.77
2018-11-25T20:48:13.862Z,6.69
2018-11-25T20:50:42.836Z,6.68
2018-11-25T20:53:16.748Z,6.75
2018-11-25T20:55:45.693Z,6.73
2018-11-25T20:58:14.603Z,6.66
2018-11-25T21:00:43.886Z,6.58
2018-11-25T21:03:15.074Z,6.52
2018-11-25T21:05:44.035Z,6.53
2018-11-25T21:08:12.920Z,6.51
2018-11-25T21:10:41.863Z,6.53
2018-11-25T21:13:10.772Z,6.54
2018-11-25T21:15:39.902Z,6.54
2018-11-25T21:18:08.918Z,6.57
2018-11-25T21:20:37.845Z,6.58
2018-11-25T21:23:07.192Z,6.66
2018-11-25T21:25:36.181Z,6.67
2018-11-25T21:28:05.165Z,6.62
2018-11-25T21:30:35.494Z,6.65
2018-11-25T21:33:04.560Z,6.67
2018-11-25T21:35:33.521Z,6.75
2018-11-25T21:38:02.442Z,6.80
2018-11-25T21:40:31.377Z,6.86
2018-11-25T21:43:00.288Z,6.86
2018-11-25T21:45:29.193Z,6.93
2018-11-25T21:47:58.340Z,6.94
2018-11-25T21:50:28.418Z,6.96
2018-11-25T21:52:57.322Z,6.95
2018-11-25T21:55:26.352Z,6.90
2018-11-25T21:57:55.277Z,6.94
2018-11-25T22:00:25.247Z,6.94
2018-11-25T22:02:54.200Z,6.98
2018-11-25T22:05:24.967Z,6.98
2018-11-25T22:07:52.216Z,6.95
2018-11-25T22:10:22.692Z,6.96
2018-11-25T22:12:50.739Z,6.94
2018-11-25T22:15:22.003Z,6.95
2018-11-25T22:17:51.108Z,6.95
2018-11-25T22:20:20.092Z,6.92
2018-11-25T22:22:48.968Z,6.89
2018-11-25T22:25:19.397Z,6.10
2018-11-25T22:27:48.548Z,5.47
2018-11-25T22:30:21.488Z,5.47
2018-11-25T22:32:50.552Z,5.32
2018-11-25T22:35:20.906Z,5.43
2018-11-25T22:37:49.951Z,5.45
2018-11-25T22:40:19.596Z,5.29
2018-11-25T22:42:49.482Z,5.32
2018-11-25T22:45:19.431Z,5.50
2018-11-25T22:47:48.309Z,5.54
2018-11-25T22:50:18.257Z,5.54
2018-11-25T22:52:47.237Z,5.59
2018-11-25T22:55:22.240Z,5.49
2018-11-25T22:57:52.854Z,5.52
2018-11-25T23:00:27.751Z,5.67
2018-11-25T23:02:56.782Z,5.86
2018-11-25T23:05:36.570Z,6.00
2018-11-25T23:08:05.709Z,6.13
2018-11-25T23:10:34.637Z,6.14
2018-11-25T23:13:03.631Z,6.21
2018-11-25T23:15:32.713Z,6.45
2018-11-25T23:18:01.704Z,6.52
2018-11-25T23:20:30.702Z,6.56
2018-11-25T23:22:59.800Z,6.55
2018-11-25T23:25:28.800Z,6.40
2018-11-25T23:27:57.763Z,6.41
2018-11-25T23:30:26.648Z,6.28
2018-11-25T23:32:55.735Z,6.25
2018-11-25T23:35:27.072Z,6.17
2018-11-25T23:37:56.049Z,5.98
2018-11-25T23:40:26.284Z,5.69
2018-11-25T23:42:55.257Z,5.53
2018-11-25T23:45:24.229Z,5.34
2018-11-25T23:47:53.197Z,5.39
2018-11-25T23:50:22.121Z,5.42
2018-11-25T23:52:51.035Z,5.45
2018-11-25T23:55:20.120Z,5.52
2018-11-25T23:57:49.180Z,5.69
